sensor_id;sensor_type;location;lat;lon;timestamp;P1;durP1;ratioP1;P2;durP2;ratioP2
22985;SDS011;11659;51.092;7.080;2022-07-23T00:00:32;14.03;;;11.93;;
22985;SDS011;11659;51.092;7.080;2022-07-23T00:02:58;13.23;;;10.73;;
22985;SDS011;11659;51.092;7.080;2022-07-23T00:05:24;13.03;;;11.30;;
22985;SDS011;11659;51.092;7.080;2022-07-23T00:07:52;13.83;;;11.23;;
22985;SDS011;11659;51.092;7.080;2022-07-23T00:10:18;13.23;;;10.77;;
22985;SDS011;11659;51.092;7.080;2022-07-23T00:12:44;15.17;;;10.83;;
22985;SDS011;11659;51.092;7.080;2022-07-23T00:15:10;15.30;;;11.43;;
22985;SDS011;11659;51.092;7.080;2022-07-23T00:17:36;12.93;;;10.53;;
22985;SDS011;11659;51.092;7.080;2022-07-23T00:20:02;13.67;;;11.07;;
22985;SDS011;11659;51.092;7.080;2022-07-23T00:22:29;12.40;;;10.23;;
22985;SDS011;11659;51.092;7.080;2022-07-23T00:24:57;12.90;;;10.10;;
22985;SDS011;11659;51.092;7.080;2022-07-23T00:27:23;11.57;;;9.53;;
22985;SDS011;11659;51.092;7.080;2022-07-23T00:29:49;10.10;;;8.67;;
22985;SDS011;11659;51.092;7.080;2022-07-23T00:32:14;9.93;;;8.63;;
22985;SDS011;11659;51.092;7.080;2022-07-23T00:34:41;9.20;;;8.10;;
22985;SDS011;11659;51.092;7.080;2022-07-23T00:37:07;9.73;;;8.00;;
22985;SDS011;11659;51.092;7.080;2022-07-23T00:39:38;10.17;;;8.07;;
22985;SDS011;11659;51.092;7.080;2022-07-23T00:42:06;10.90;;;7.67;;
22985;SDS011;11659;51.092;7.080;2022-07-23T00:44:32;9.87;;;7.80;;
22985;SDS011;11659;51.092;7.080;2022-07-23T00:46:58;9.73;;;8.13;;
22985;SDS011;11659;51.092;7.080;2022-07-23T00:49:24;10.77;;;8.23;;
22985;SDS011;11659;51.092;7.080;2022-07-23T00:51:51;9.40;;;7.20;;
22985;SDS011;11659;51.092;7.080;2022-07-23T00:54:18;9.13;;;7.90;;
22985;SDS011;11659;51.092;7.080;2022-07-23T00:56:46;11.27;;;9.00;;
22985;SDS011;11659;51.092;7.080;2022-07-23T00:59:14;12.03;;;9.00;;
22985;SDS011;11659;51.092;7.080;2022-07-23T01:01:40;11.43;;;8.63;;
22985;SDS011;11659;51.092;7.080;2022-07-23T01:04:07;11.67;;;9.00;;
22985;SDS011;11659;51.092;7.080;2022-07-23T01:06:34;9.13;;;8.13;;
22985;SDS011;11659;51.092;7.080;2022-07-23T01:09:02;10.97;;;8.60;;
22985;SDS011;11659;51.092;7.080;2022-07-23T01:11:29;8.70;;;7.17;;
22985;SDS011;11659;51.092;7.080;2022-07-23T01:13:56;8.83;;;7.30;;
22985;SDS011;11659;51.092;7.080;2022-07-23T01:16:24;7.83;;;7.03;;
22985;SDS011;11659;51.092;7.080;2022-07-23T01:18:50;7.97;;;7.13;;
22985;SDS011;11659;51.092;7.080;2022-07-23T01:21:16;9.53;;;7.60;;
22985;SDS011;11659;51.092;7.080;2022-07-23T01:23:45;9.37;;;7.20;;
22985;SDS011;11659;51.092;7.080;2022-07-23T01:26:11;8.57;;;7.57;;
22985;SDS011;11659;51.092;7.080;2022-07-23T01:28:39;9.47;;;7.57;;
22985;SDS011;11659;51.092;7.080;2022-07-23T01:31:05;9.47;;;7.83;;
22985;SDS011;11659;51.092;7.080;2022-07-23T01:33:34;9.80;;;8.10;;
22985;SDS011;11659;51.092;7.080;2022-07-23T01:36:00;9.37;;;7.53;;
22985;SDS011;11659;51.092;7.080;2022-07-23T01:38:26;11.47;;;7.50;;
22985;SDS011;11659;51.092;7.080;2022-07-23T01:40:53;10.97;;;8.00;;
22985;SDS011;11659;51.092;7.080;2022-07-23T01:43:19;10.73;;;8.50;;
22985;SDS011;11659;51.092;7.080;2022-07-23T01:45:45;12.00;;;9.30;;
22985;SDS011;11659;51.092;7.080;2022-07-23T01:48:12;10.77;;;8.87;;
22985;SDS011;11659;51.092;7.080;2022-07-23T01:50:46;11.97;;;8.63;;
22985;SDS011;11659;51.092;7.080;2022-07-23T01:53:20;9.57;;;7.70;;
22985;SDS011;11659;51.092;7.080;2022-07-23T01:55:46;12.37;;;8.43;;
22985;SDS011;11659;51.092;7.080;2022-07-23T01:58:14;11.33;;;8.80;;
22985;SDS011;11659;51.092;7.080;2022-07-23T02:00:40;10.30;;;8.10;;
22985;SDS011;11659;51.092;7.080;2022-07-23T02:03:06;10.17;;;8.20;;
22985;SDS011;11659;51.092;7.080;2022-07-23T02:05:32;9.03;;;7.40;;
22985;SDS011;11659;51.092;7.080;2022-07-23T02:08:00;10.13;;;7.33;;
22985;SDS011;11659;51.092;7.080;2022-07-23T02:10:26;8.87;;;7.40;;
22985;SDS011;11659;51.092;7.080;2022-07-23T02:12:53;8.47;;;7.57;;
22985;SDS011;11659;51.092;7.080;2022-07-23T02:15:20;9.27;;;7.10;;
22985;SDS011;11659;51.092;7.080;2022-07-23T02:17:47;8.73;;;7.20;;
22985;SDS011;11659;51.092;7.080;2022-07-23T02:20:13;8.40;;;6.67;;
22985;SDS011;11659;51.092;7.080;2022-07-23T02:22:42;8.10;;;7.13;;
22985;SDS011;11659;51.092;7.080;2022-07-23T02:25:08;8.87;;;7.23;;
22985;SDS011;11659;51.092;7.080;2022-07-23T02:27:35;9.07;;;6.67;;
22985;SDS011;11659;51.092;7.080;2022-07-23T02:30:04;9.40;;;7.37;;
22985;SDS011;11659;51.092;7.080;2022-07-23T02:32:34;7.87;;;6.40;;
22985;SDS011;11659;51.092;7.080;2022-07-23T02:35:01;7.87;;;6.30;;
22985;SDS011;11659;51.092;7.080;2022-07-23T02:37:27;6.70;;;5.97;;
22985;SDS011;11659;51.092;7.080;2022-07-23T02:39:54;8.30;;;6.30;;
22985;SDS011;11659;51.092;7.080;2022-07-23T02:42:20;7.20;;;6.20;;
22985;SDS011;11659;51.092;7.080;2022-07-23T02:44:46;6.57;;;5.87;;
22985;SDS011;11659;51.092;7.080;2022-07-23T02:47:13;7.43;;;5.83;;
22985;SDS011;11659;51.092;7.080;2022-07-23T02:49:40;7.60;;;5.70;;
22985;SDS011;11659;51.092;7.080;2022-07-23T02:52:07;7.53;;;6.10;;
22985;SDS011;11659;51.092;7.080;2022-07-23T02:54:35;7.00;;;5.97;;
22985;SDS011;11659;51.092;7.080;2022-07-23T02:57:02;8.30;;;6.50;;
22985;SDS011;11659;51.092;7.080;2022-07-23T02:59:28;8.57;;;6.33;;
22985;SDS011;11659;51.092;7.080;2022-07-23T03:01:54;9.23;;;6.80;;
22985;SDS011;11659;51.092;7.080;2022-07-23T03:04:21;8.47;;;7.27;;
22985;SDS011;11659;51.092;7.080;2022-07-23T03:06:48;9.10;;;7.23;;
22985;SDS011;11659;51.092;7.080;2022-07-23T03:09:14;8.23;;;6.33;;
22985;SDS011;11659;51.092;7.080;2022-07-23T03:11:40;7.80;;;6.83;;
22985;SDS011;11659;51.092;7.080;2022-07-23T03:14:06;8.87;;;6.83;;
22985;SDS011;11659;51.092;7.080;2022-07-23T03:16:34;9.23;;;7.33;;
22985;SDS011;11659;51.092;7.080;2022-07-23T03:19:01;9.57;;;7.40;;
22985;SDS011;11659;51.092;7.080;2022-07-23T03:21:27;11.57;;;8.00;;
22985;SDS011;11659;51.092;7.080;2022-07-23T03:23:54;10.07;;;7.27;;
22985;SDS011;11659;51.092;7.080;2022-07-23T03:26:20;8.63;;;6.77;;
22985;SDS011;11659;51.092;7.080;2022-07-23T03:28:50;8.93;;;6.73;;
22985;SDS011;11659;51.092;7.080;2022-07-23T03:31:18;9.10;;;6.70;;
22985;SDS011;11659;51.092;7.080;2022-07-23T03:33:44;8.70;;;6.80;;
22985;SDS011;11659;51.092;7.080;2022-07-23T03:36:10;7.77;;;6.53;;
22985;SDS011;11659;51.092;7.080;2022-07-23T03:38:40;8.27;;;6.73;;
22985;SDS011;11659;51.092;7.080;2022-07-23T03:41:07;8.20;;;6.40;;
22985;SDS011;11659;51.092;7.080;2022-07-23T03:43:33;10.13;;;7.27;;
22985;SDS011;11659;51.092;7.080;2022-07-23T03:45:59;9.83;;;7.53;;
22985;SDS011;11659;51.092;7.080;2022-07-23T03:48:25;8.70;;;6.97;;
22985;SDS011;11659;51.092;7.080;2022-07-23T03:50:51;10.20;;;7.07;;
22985;SDS011;11659;51.092;7.080;2022-07-23T03:53:17;9.13;;;7.20;;
22985;SDS011;11659;51.092;7.080;2022-07-23T03:55:43;9.03;;;6.80;;
22985;SDS011;11659;51.092;7.080;2022-07-23T03:58:10;8.63;;;6.77;;
22985;SDS011;11659;51.092;7.080;2022-07-23T04:00:36;7.83;;;6.70;;
22985;SDS011;11659;51.092;7.080;2022-07-23T04:03:02;7.90;;;6.93;;
22985;SDS011;11659;51.092;7.080;2022-07-23T04:05:28;6.43;;;5.77;;
22985;SDS011;11659;51.092;7.080;2022-07-23T04:08:04;6.77;;;5.53;;
22985;SDS011;11659;51.092;7.080;2022-07-23T04:10:30;5.50;;;4.90;;
22985;SDS011;11659;51.092;7.080;2022-07-23T04:12:56;5.20;;;4.70;;
22985;SDS011;11659;51.092;7.080;2022-07-23T04:15:24;4.43;;;4.03;;
22985;SDS011;11659;51.092;7.080;2022-07-23T04:17:50;4.60;;;4.20;;
22985;SDS011;11659;51.092;7.080;2022-07-23T04:20:18;4.33;;;3.93;;
22985;SDS011;11659;51.092;7.080;2022-07-23T04:22:51;4.17;;;3.83;;
22985;SDS011;11659;51.092;7.080;2022-07-23T04:25:17;4.10;;;3.70;;
22985;SDS011;11659;51.092;7.080;2022-07-23T04:27:44;3.57;;;3.27;;
22985;SDS011;11659;51.092;7.080;2022-07-23T04:30:11;3.77;;;3.47;;
22985;SDS011;11659;51.092;7.080;2022-07-23T04:32:38;3.70;;;3.40;;
22985;SDS011;11659;51.092;7.080;2022-07-23T04:35:11;3.53;;;3.23;;
22985;SDS011;11659;51.092;7.080;2022-07-23T04:37:38;3.60;;;3.37;;
22985;SDS011;11659;51.092;7.080;2022-07-23T04:40:04;3.30;;;3.00;;
22985;SDS011;11659;51.092;7.080;2022-07-23T04:42:31;3.67;;;3.37;;
22985;SDS011;11659;51.092;7.080;2022-07-23T04:44:57;3.60;;;3.30;;
22985;SDS011;11659;51.092;7.080;2022-07-23T04:47:23;3.33;;;3.03;;
22985;SDS011;11659;51.092;7.080;2022-07-23T04:49:50;3.57;;;3.27;;
22985;SDS011;11659;51.092;7.080;2022-07-23T04:52:16;3.30;;;3.00;;
22985;SDS011;11659;51.092;7.080;2022-07-23T04:54:42;3.27;;;2.97;;
22985;SDS011;11659;51.092;7.080;2022-07-23T04:57:08;3.30;;;3.00;;
22985;SDS011;11659;51.092;7.080;2022-07-23T04:59:34;3.37;;;3.07;;
22985;SDS011;11659;51.092;7.080;2022-07-23T05:02:03;3.40;;;3.10;;
22985;SDS011;11659;51.092;7.080;2022-07-23T05:04:30;3.63;;;3.30;;
22985;SDS011;11659;51.092;7.080;2022-07-23T05:06:58;3.73;;;3.33;;
22985;SDS011;11659;51.092;7.080;2022-07-23T05:09:24;3.77;;;3.37;;
22985;SDS011;11659;51.092;7.080;2022-07-23T05:11:50;3.90;;;3.30;;
22985;SDS011;11659;51.092;7.080;2022-07-23T05:14:16;4.10;;;3.03;;
22985;SDS011;11659;51.092;7.080;2022-07-23T05:16:43;3.97;;;3.57;;
22985;SDS011;11659;51.092;7.080;2022-07-23T05:19:15;4.40;;;3.93;;
22985;SDS011;11659;51.092;7.080;2022-07-23T05:21:41;4.20;;;3.80;;
22985;SDS011;11659;51.092;7.080;2022-07-23T05:24:09;5.23;;;4.60;;
22985;SDS011;11659;51.092;7.080;2022-07-23T05:26:35;4.43;;;4.03;;
22985;SDS011;11659;51.092;7.080;2022-07-23T05:29:01;5.23;;;4.27;;
22985;SDS011;11659;51.092;7.080;2022-07-23T05:31:27;5.10;;;4.50;;
22985;SDS011;11659;51.092;7.080;2022-07-23T05:33:53;5.27;;;4.70;;
22985;SDS011;11659;51.092;7.080;2022-07-23T05:36:19;6.03;;;5.00;;
22985;SDS011;11659;51.092;7.080;2022-07-23T05:38:52;5.73;;;4.67;;
22985;SDS011;11659;51.092;7.080;2022-07-23T05:41:20;6.40;;;5.13;;
22985;SDS011;11659;51.092;7.080;2022-07-23T05:43:46;5.10;;;4.60;;
22985;SDS011;11659;51.092;7.080;2022-07-23T05:46:13;6.93;;;4.97;;
22985;SDS011;11659;51.092;7.080;2022-07-23T05:48:41;5.47;;;4.83;;
22985;SDS011;11659;51.092;7.080;2022-07-23T05:51:19;6.57;;;5.03;;
22985;SDS011;11659;51.092;7.080;2022-07-23T05:53:45;6.47;;;5.30;;
22985;SDS011;11659;51.092;7.080;2022-07-23T05:56:19;7.40;;;5.63;;
22985;SDS011;11659;51.092;7.080;2022-07-23T05:58:46;6.57;;;5.20;;
22985;SDS011;11659;51.092;7.080;2022-07-23T06:01:14;7.30;;;5.60;;
22985;SDS011;11659;51.092;7.080;2022-07-23T06:03:48;5.37;;;4.87;;
22985;SDS011;11659;51.092;7.080;2022-07-23T06:06:14;6.37;;;5.17;;
22985;SDS011;11659;51.092;7.080;2022-07-23T06:08:40;6.53;;;5.40;;
22985;SDS011;11659;51.092;7.080;2022-07-23T06:11:07;5.97;;;4.93;;
22985;SDS011;11659;51.092;7.080;2022-07-23T06:13:36;7.07;;;5.47;;
22985;SDS011;11659;51.092;7.080;2022-07-23T06:16:02;6.20;;;5.07;;
22985;SDS011;11659;51.092;7.080;2022-07-23T06:18:29;7.63;;;5.40;;
22985;SDS011;11659;51.092;7.080;2022-07-23T06:20:55;5.60;;;4.70;;
22985;SDS011;11659;51.092;7.080;2022-07-23T06:23:21;5.97;;;4.93;;
22985;SDS011;11659;51.092;7.080;2022-07-23T06:25:47;6.90;;;5.03;;
22985;SDS011;11659;51.092;7.080;2022-07-23T06:28:13;6.43;;;5.27;;
22985;SDS011;11659;51.092;7.080;2022-07-23T06:30:42;7.60;;;5.37;;
22985;SDS011;11659;51.092;7.080;2022-07-23T06:33:08;6.20;;;5.27;;
22985;SDS011;11659;51.092;7.080;2022-07-23T06:35:34;7.27;;;5.57;;
22985;SDS011;11659;51.092;7.080;2022-07-23T06:38:01;7.07;;;5.70;;
22985;SDS011;11659;51.092;7.080;2022-07-23T06:40:27;7.50;;;5.80;;
22985;SDS011;11659;51.092;7.080;2022-07-23T06:42:53;7.20;;;5.40;;
22985;SDS011;11659;51.092;7.080;2022-07-23T06:45:21;6.70;;;5.53;;
22985;SDS011;11659;51.092;7.080;2022-07-23T06:47:49;6.40;;;5.20;;
22985;SDS011;11659;51.092;7.080;2022-07-23T06:50:15;6.40;;;5.40;;
22985;SDS011;11659;51.092;7.080;2022-07-23T06:52:41;8.17;;;6.63;;
22985;SDS011;11659;51.092;7.080;2022-07-23T06:55:07;8.20;;;6.57;;
22985;SDS011;11659;51.092;7.080;2022-07-23T06:57:34;10.57;;;6.90;;
22985;SDS011;11659;51.092;7.080;2022-07-23T06:59:59;7.13;;;6.17;;
22985;SDS011;11659;51.092;7.080;2022-07-23T07:02:25;7.33;;;6.53;;
22985;SDS011;11659;51.092;7.080;2022-07-23T07:04:55;7.60;;;5.90;;
22985;SDS011;11659;51.092;7.080;2022-07-23T07:07:21;8.23;;;5.77;;
22985;SDS011;11659;51.092;7.080;2022-07-23T07:09:47;6.93;;;5.83;;
22985;SDS011;11659;51.092;7.080;2022-07-23T07:12:13;7.43;;;5.87;;
22985;SDS011;11659;51.092;7.080;2022-07-23T07:14:39;7.13;;;5.70;;
22985;SDS011;11659;51.092;7.080;2022-07-23T07:17:05;6.30;;;5.07;;
22985;SDS011;11659;51.092;7.080;2022-07-23T07:19:31;6.20;;;5.23;;
22985;SDS011;11659;51.092;7.080;2022-07-23T07:21:58;5.90;;;4.97;;
22985;SDS011;11659;51.092;7.080;2022-07-23T07:24:24;5.87;;;4.90;;
22985;SDS011;11659;51.092;7.080;2022-07-23T07:26:50;5.30;;;4.80;;
22985;SDS011;11659;51.092;7.080;2022-07-23T07:29:16;4.80;;;4.23;;
22985;SDS011;11659;51.092;7.080;2022-07-23T07:31:42;6.20;;;5.10;;
22985;SDS011;11659;51.092;7.080;2022-07-23T07:34:08;5.77;;;5.00;;
22985;SDS011;11659;51.092;7.080;2022-07-23T07:36:34;7.47;;;5.47;;
22985;SDS011;11659;51.092;7.080;2022-07-23T07:39:03;6.20;;;5.07;;
22985;SDS011;11659;51.092;7.080;2022-07-23T07:41:30;6.43;;;5.40;;
22985;SDS011;11659;51.092;7.080;2022-07-23T07:43:56;5.77;;;5.03;;
22985;SDS011;11659;51.092;7.080;2022-07-23T07:46:22;6.33;;;5.17;;
22985;SDS011;11659;51.092;7.080;2022-07-23T07:48:49;5.20;;;4.60;;
22985;SDS011;11659;51.092;7.080;2022-07-23T07:51:15;8.60;;;5.27;;
22985;SDS011;11659;51.092;7.080;2022-07-23T07:53:41;5.97;;;5.00;;
22985;SDS011;11659;51.092;7.080;2022-07-23T07:56:08;6.77;;;4.80;;
22985;SDS011;11659;51.092;7.080;2022-07-23T07:58:35;6.80;;;5.23;;
22985;SDS011;11659;51.092;7.080;2022-07-23T08:01:01;6.70;;;5.03;;
22985;SDS011;11659;51.092;7.080;2022-07-23T08:03:27;5.80;;;4.87;;
22985;SDS011;11659;51.092;7.080;2022-07-23T08:05:53;5.23;;;4.47;;
22985;SDS011;11659;51.092;7.080;2022-07-23T08:08:19;5.27;;;4.63;;
22985;SDS011;11659;51.092;7.080;2022-07-23T08:10:45;4.93;;;4.30;;
22985;SDS011;11659;51.092;7.080;2022-07-23T08:13:13;4.73;;;4.33;;
22985;SDS011;11659;51.092;7.080;2022-07-23T08:15:40;5.33;;;4.13;;
22985;SDS011;11659;51.092;7.080;2022-07-23T08:18:06;4.80;;;4.30;;
22985;SDS011;11659;51.092;7.080;2022-07-23T08:20:32;5.13;;;4.47;;
22985;SDS011;11659;51.092;7.080;2022-07-23T08:23:00;5.30;;;4.13;;
22985;SDS011;11659;51.092;7.080;2022-07-23T08:25:30;5.97;;;4.33;;
22985;SDS011;11659;51.092;7.080;2022-07-23T08:27:58;5.60;;;4.20;;
22985;SDS011;11659;51.092;7.080;2022-07-23T08:30:26;4.73;;;4.00;;
22985;SDS011;11659;51.092;7.080;2022-07-23T08:32:54;5.43;;;4.00;;
22985;SDS011;11659;51.092;7.080;2022-07-23T08:35:22;4.87;;;4.37;;
22985;SDS011;11659;51.092;7.080;2022-07-23T08:37:51;4.93;;;4.27;;
22985;SDS011;11659;51.092;7.080;2022-07-23T08:40:17;5.20;;;4.53;;
22985;SDS011;11659;51.092;7.080;2022-07-23T08:42:44;4.63;;;4.17;;
22985;SDS011;11659;51.092;7.080;2022-07-23T08:45:13;5.20;;;4.70;;
22985;SDS011;11659;51.092;7.080;2022-07-23T08:47:43;5.67;;;4.10;;
22985;SDS011;11659;51.092;7.080;2022-07-23T08:50:10;5.67;;;4.17;;
22985;SDS011;11659;51.092;7.080;2022-07-23T08:52:36;4.67;;;4.13;;
22985;SDS011;11659;51.092;7.080;2022-07-23T08:55:03;4.20;;;3.80;;
22985;SDS011;11659;51.092;7.080;2022-07-23T08:57:30;4.43;;;3.63;;
22985;SDS011;11659;51.092;7.080;2022-07-23T08:59:56;4.03;;;3.63;;
22985;SDS011;11659;51.092;7.080;2022-07-23T09:02:23;5.00;;;4.17;;
22985;SDS011;11659;51.092;7.080;2022-07-23T09:04:50;4.57;;;4.13;;
22985;SDS011;11659;51.092;7.080;2022-07-23T09:07:16;4.50;;;4.00;;
22985;SDS011;11659;51.092;7.080;2022-07-23T09:09:42;4.37;;;3.97;;
22985;SDS011;11659;51.092;7.080;2022-07-23T09:12:09;5.20;;;4.13;;
22985;SDS011;11659;51.092;7.080;2022-07-23T09:14:37;4.70;;;4.13;;
22985;SDS011;11659;51.092;7.080;2022-07-23T09:17:08;4.50;;;4.10;;
22985;SDS011;11659;51.092;7.080;2022-07-23T09:19:35;4.97;;;4.47;;
22985;SDS011;11659;51.092;7.080;2022-07-23T09:25:05;5.27;;;4.60;;
22985;SDS011;11659;51.092;7.080;2022-07-23T09:27:46;5.27;;;4.80;;
22985;SDS011;11659;51.092;7.080;2022-07-23T09:30:14;5.43;;;4.50;;
22985;SDS011;11659;51.092;7.080;2022-07-23T09:32:40;5.50;;;4.47;;
22985;SDS011;11659;51.092;7.080;2022-07-23T09:35:06;6.03;;;5.00;;
22985;SDS011;11659;51.092;7.080;2022-07-23T09:37:34;5.10;;;4.57;;
22985;SDS011;11659;51.092;7.080;2022-07-23T09:40:03;5.13;;;4.57;;
22985;SDS011;11659;51.092;7.080;2022-07-23T09:42:30;5.30;;;4.80;;
22985;SDS011;11659;51.092;7.080;2022-07-23T09:44:57;5.10;;;4.57;;
22985;SDS011;11659;51.092;7.080;2022-07-23T09:47:24;5.47;;;4.97;;
22985;SDS011;11659;51.092;7.080;2022-07-23T09:49:58;5.97;;;5.37;;
22985;SDS011;11659;51.092;7.080;2022-07-23T09:52:26;6.43;;;5.70;;
22985;SDS011;11659;51.092;7.080;2022-07-23T09:54:58;6.53;;;5.90;;
22985;SDS011;11659;51.092;7.080;2022-07-23T09:57:26;5.87;;;5.27;;
22985;SDS011;11659;51.092;7.080;2022-07-23T09:59:52;5.77;;;5.20;;
22985;SDS011;11659;51.092;7.080;2022-07-23T10:02:20;6.13;;;5.60;;
22985;SDS011;11659;51.092;7.080;2022-07-23T10:05:06;6.37;;;5.77;;
22985;SDS011;11659;51.092;7.080;2022-07-23T10:08:11;6.20;;;5.60;;
22985;SDS011;11659;51.092;7.080;2022-07-23T10:10:41;6.63;;;6.00;;
22985;SDS011;11659;51.092;7.080;2022-07-23T10:13:30;6.73;;;6.13;;
22985;SDS011;11659;51.092;7.080;2022-07-23T10:16:15;6.50;;;5.83;;
22985;SDS011;11659;51.092;7.080;2022-07-23T10:18:41;6.00;;;5.40;;
22985;SDS011;11659;51.092;7.080;2022-07-23T10:21:08;6.10;;;5.60;;
22985;SDS011;11659;51.092;7.080;2022-07-23T10:23:35;6.43;;;5.80;;
22985;SDS011;11659;51.092;7.080;2022-07-23T10:26:10;6.57;;;6.07;;
22985;SDS011;11659;51.092;7.080;2022-07-23T10:29:07;6.17;;;5.57;;
22985;SDS011;11659;51.092;7.080;2022-07-23T10:31:42;6.97;;;6.27;;
22985;SDS011;11659;51.092;7.080;2022-07-23T10:34:19;6.17;;;5.67;;
22985;SDS011;11659;51.092;7.080;2022-07-23T10:36:51;6.50;;;5.90;;
22985;SDS011;11659;51.092;7.080;2022-07-23T10:39:22;6.40;;;5.80;;
22985;SDS011;11659;51.092;7.080;2022-07-23T10:41:52;7.20;;;5.87;;
22985;SDS011;11659;51.092;7.080;2022-07-23T10:44:37;5.97;;;5.37;;
22985;SDS011;11659;51.092;7.080;2022-07-23T10:47:06;5.57;;;5.07;;
22985;SDS011;11659;51.092;7.080;2022-07-23T10:49:50;5.23;;;4.83;;
22985;SDS011;11659;51.092;7.080;2022-07-23T10:52:21;5.30;;;4.80;;
22985;SDS011;11659;51.092;7.080;2022-07-23T10:54:49;5.33;;;4.83;;
22985;SDS011;11659;51.092;7.080;2022-07-23T10:57:19;5.50;;;5.00;;
22985;SDS011;11659;51.092;7.080;2022-07-23T11:02:45;5.10;;;4.60;;
22985;SDS011;11659;51.092;7.080;2022-07-23T11:05:13;6.37;;;5.77;;
22985;SDS011;11659;51.092;7.080;2022-07-23T11:10:40;5.73;;;5.23;;
22985;SDS011;11659;51.092;7.080;2022-07-23T11:16:15;5.70;;;5.20;;
22985;SDS011;11659;51.092;7.080;2022-07-23T11:19:02;5.60;;;5.10;;
22985;SDS011;11659;51.092;7.080;2022-07-23T11:21:44;4.97;;;4.57;;
22985;SDS011;11659;51.092;7.080;2022-07-23T11:24:18;5.20;;;4.70;;
22985;SDS011;11659;51.092;7.080;2022-07-23T11:26:55;5.10;;;4.60;;
22985;SDS011;11659;51.092;7.080;2022-07-23T11:32:23;4.57;;;4.17;;
22985;SDS011;11659;51.092;7.080;2022-07-23T11:35:02;4.83;;;4.43;;
22985;SDS011;11659;51.092;7.080;2022-07-23T11:37:43;4.60;;;4.20;;
22985;SDS011;11659;51.092;7.080;2022-07-23T11:40:11;4.20;;;3.80;;
22985;SDS011;11659;51.092;7.080;2022-07-23T11:42:40;4.60;;;4.20;;
22985;SDS011;11659;51.092;7.080;2022-07-23T11:45:18;4.40;;;4.00;;
22985;SDS011;11659;51.092;7.080;2022-07-23T11:47:45;4.50;;;4.10;;
22985;SDS011;11659;51.092;7.080;2022-07-23T11:50:11;5.17;;;4.33;;
22985;SDS011;11659;51.092;7.080;2022-07-23T11:52:37;4.33;;;3.97;;
22985;SDS011;11659;51.092;7.080;2022-07-23T11:55:05;4.37;;;3.97;;
22985;SDS011;11659;51.092;7.080;2022-07-23T11:57:33;4.73;;;4.33;;
22985;SDS011;11659;51.092;7.080;2022-07-23T12:00:03;4.90;;;4.50;;
22985;SDS011;11659;51.092;7.080;2022-07-23T12:02:38;4.50;;;4.10;;
22985;SDS011;11659;51.092;7.080;2022-07-23T12:05:05;5.10;;;4.70;;
22985;SDS011;11659;51.092;7.080;2022-07-23T12:07:35;5.10;;;4.67;;
22985;SDS011;11659;51.092;7.080;2022-07-23T12:10:03;5.20;;;4.70;;
22985;SDS011;11659;51.092;7.080;2022-07-23T12:12:37;4.63;;;4.33;;
22985;SDS011;11659;51.092;7.080;2022-07-23T12:15:04;4.80;;;4.40;;
22985;SDS011;11659;51.092;7.080;2022-07-23T12:17:31;5.57;;;4.60;;
22985;SDS011;11659;51.092;7.080;2022-07-23T12:20:00;4.87;;;4.33;;
22985;SDS011;11659;51.092;7.080;2022-07-23T12:22:33;5.30;;;4.80;;
22985;SDS011;11659;51.092;7.080;2022-07-23T12:25:02;4.93;;;4.53;;
22985;SDS011;11659;51.092;7.080;2022-07-23T12:27:31;5.10;;;4.60;;
22985;SDS011;11659;51.092;7.080;2022-07-23T12:29:57;4.23;;;3.93;;
22985;SDS011;11659;51.092;7.080;2022-07-23T12:32:24;5.07;;;4.30;;
22985;SDS011;11659;51.092;7.080;2022-07-23T12:35:03;5.20;;;4.70;;
22985;SDS011;11659;51.092;7.080;2022-07-23T12:37:31;5.47;;;4.97;;
22985;SDS011;11659;51.092;7.080;2022-07-23T12:39:58;5.33;;;4.83;;
22985;SDS011;11659;51.092;7.080;2022-07-23T12:42:24;5.07;;;4.57;;
22985;SDS011;11659;51.092;7.080;2022-07-23T12:45:03;5.00;;;4.50;;
22985;SDS011;11659;51.092;7.080;2022-07-23T12:50:37;4.33;;;3.87;;
22985;SDS011;11659;51.092;7.080;2022-07-23T12:53:09;4.67;;;4.17;;
22985;SDS011;11659;51.092;7.080;2022-07-23T12:55:37;4.27;;;3.87;;
22985;SDS011;11659;51.092;7.080;2022-07-23T12:58:04;4.20;;;3.83;;
22985;SDS011;11659;51.092;7.080;2022-07-23T13:00:52;5.77;;;4.57;;
22985;SDS011;11659;51.092;7.080;2022-07-23T13:03:25;4.67;;;4.17;;
22985;SDS011;11659;51.092;7.080;2022-07-23T13:05:54;4.67;;;4.10;;
22985;SDS011;11659;51.092;7.080;2022-07-23T13:08:21;5.37;;;4.27;;
22985;SDS011;11659;51.092;7.080;2022-07-23T13:10:48;5.97;;;4.13;;
22985;SDS011;11659;51.092;7.080;2022-07-23T13:13:16;5.03;;;4.20;;
22985;SDS011;11659;51.092;7.080;2022-07-23T13:15:44;4.30;;;3.90;;
22985;SDS011;11659;51.092;7.080;2022-07-23T13:18:10;3.93;;;3.53;;
22985;SDS011;11659;51.092;7.080;2022-07-23T13:20:37;4.47;;;3.60;;
22985;SDS011;11659;51.092;7.080;2022-07-23T13:23:05;3.73;;;3.40;;
22985;SDS011;11659;51.092;7.080;2022-07-23T13:25:31;3.63;;;3.33;;
22985;SDS011;11659;51.092;7.080;2022-07-23T13:27:57;4.13;;;3.20;;
22985;SDS011;11659;51.092;7.080;2022-07-23T13:30:23;3.43;;;3.10;;
22985;SDS011;11659;51.092;7.080;2022-07-23T13:32:49;2.67;;;2.47;;
22985;SDS011;11659;51.092;7.080;2022-07-23T13:35:15;2.90;;;2.60;;
22985;SDS011;11659;51.092;7.080;2022-07-23T13:37:41;2.90;;;2.60;;
22985;SDS011;11659;51.092;7.080;2022-07-23T13:40:09;3.20;;;2.60;;
22985;SDS011;11659;51.092;7.080;2022-07-23T13:42:35;3.23;;;2.93;;
22985;SDS011;11659;51.092;7.080;2022-07-23T13:45:02;3.17;;;2.73;;
22985;SDS011;11659;51.092;7.080;2022-07-23T13:47:29;3.10;;;2.50;;
22985;SDS011;11659;51.092;7.080;2022-07-23T13:49:55;3.80;;;2.80;;
22985;SDS011;11659;51.092;7.080;2022-07-23T13:52:21;2.97;;;2.40;;
22985;SDS011;11659;51.092;7.080;2022-07-23T13:54:47;2.83;;;2.60;;
22985;SDS011;11659;51.092;7.080;2022-07-23T13:57:14;3.27;;;2.50;;
22985;SDS011;11659;51.092;7.080;2022-07-23T13:59:40;4.27;;;2.87;;
22985;SDS011;11659;51.092;7.080;2022-07-23T14:02:06;3.23;;;2.40;;
22985;SDS011;11659;51.092;7.080;2022-07-23T14:04:33;3.47;;;2.50;;
22985;SDS011;11659;51.092;7.080;2022-07-23T14:06:59;3.00;;;2.47;;
22985;SDS011;11659;51.092;7.080;2022-07-23T14:09:25;3.43;;;2.93;;
22985;SDS011;11659;51.092;7.080;2022-07-23T14:11:51;3.83;;;3.00;;
22985;SDS011;11659;51.092;7.080;2022-07-23T14:14:19;3.23;;;2.90;;
22985;SDS011;11659;51.092;7.080;2022-07-23T14:16:44;2.87;;;2.60;;
22985;SDS011;11659;51.092;7.080;2022-07-23T14:19:10;3.10;;;2.80;;
22985;SDS011;11659;51.092;7.080;2022-07-23T14:21:37;2.47;;;2.27;;
22985;SDS011;11659;51.092;7.080;2022-07-23T14:24:03;3.03;;;2.47;;
22985;SDS011;11659;51.092;7.080;2022-07-23T14:26:29;2.77;;;2.57;;
22985;SDS011;11659;51.092;7.080;2022-07-23T14:28:55;2.50;;;2.30;;
22985;SDS011;11659;51.092;7.080;2022-07-23T14:31:22;3.07;;;2.20;;
22985;SDS011;11659;51.092;7.080;2022-07-23T14:33:48;2.60;;;2.40;;
22985;SDS011;11659;51.092;7.080;2022-07-23T14:36:15;2.87;;;2.60;;
22985;SDS011;11659;51.092;7.080;2022-07-23T14:38:41;2.47;;;2.27;;
22985;SDS011;11659;51.092;7.080;2022-07-23T14:41:07;4.43;;;2.50;;
22985;SDS011;11659;51.092;7.080;2022-07-23T14:43:35;3.07;;;2.60;;
22985;SDS011;11659;51.092;7.080;2022-07-23T14:46:00;2.83;;;2.50;;
22985;SDS011;11659;51.092;7.080;2022-07-23T14:48:28;2.53;;;2.33;;
22985;SDS011;11659;51.092;7.080;2022-07-23T14:50:54;2.80;;;2.50;;
22985;SDS011;11659;51.092;7.080;2022-07-23T14:53:20;2.63;;;2.43;;
22985;SDS011;11659;51.092;7.080;2022-07-23T14:55:46;2.80;;;2.60;;
22985;SDS011;11659;51.092;7.080;2022-07-23T14:58:12;2.77;;;2.50;;
22985;SDS011;11659;51.092;7.080;2022-07-23T15:00:38;3.93;;;2.57;;
22985;SDS011;11659;51.092;7.080;2022-07-23T15:03:03;2.80;;;2.60;;
22985;SDS011;11659;51.092;7.080;2022-07-23T15:05:31;3.30;;;2.50;;
22985;SDS011;11659;51.092;7.080;2022-07-23T15:07:57;2.43;;;2.23;;